Time;durP1;ratioP1;P1;durP2;ratioP2;P2;SDS_P1;SDS_P2;PMS_P1;PMS_P2;Temp;Humidity;BMP_temperature;BMP_pressure;BME280_temperature;BME280_humidity;BME280_pressure;Samples;Min_cycle;Max_cycle;Signal;HPM_P1;HPM_P2
2022/11/11 00:02:07;;;;;;;19.77;5.22;;;;;;;;;;5059481;28;20059;-73
2022/11/11 00:04:33;;;;;;;20.48;5.05;;;;;;;;;;5062548;28;20025;-72
2022/11/11 00:06:59;;;;;;;23.38;5.43;;;;;;;;;;5055071;28;20033;-72
2022/11/11 00:09:25;;;;;;;20.80;5.63;;;;;;;;;;5053687;28;20071;-73
2022/11/11 00:11:51;;;;;;;18.73;5.57;;;;;;;;;;5053935;28;20495;-72
2022/11/11 00:14:17;;;;;;;24.45;6.30;;;;;;;;;;5054109;28;20339;-72
2022/11/11 00:25:08;;;;;;;21.65;5.90;;;;;;;;;;5069658;28;20116;-73
2022/11/11 00:27:35;;;;;;;20.23;6.15;;;;;;;;;;5055307;28;20108;-71
2022/11/11 00:30:01;;;;;;;22.75;6.75;;;;;;;;;;5053053;28;20473;-72
2022/11/11 00:32:29;;;;;;;21.17;6.72;;;;;;;;;;5053243;28;20029;-71
2022/11/11 00:37:41;;;;;;;20.30;5.78;;;;;;;;;;5053203;28;20047;-73
2022/11/11 00:40:08;;;;;;;32.30;6.85;;;;;;;;;;5052600;28;20473;-72
2022/11/11 00:42:34;;;;;;;17.05;5.95;;;;;;;;;;5052765;28;20489;-72
2022/11/11 00:45:00;;;;;;;26.05;5.88;;;;;;;;;;5035665;28;20025;-72
2022/11/11 00:52:57;;;;;;;25.00;6.45;;;;;;;;;;5052465;28;20036;-71
2022/11/11 00:55:23;;;;;;;30.42;6.88;;;;;;;;;;5052705;28;20037;-73
2022/11/11 00:57:49;;;;;;;22.90;5.47;;;;;;;;;;5054056;28;20475;-73
2022/11/11 01:00:15;;;;;;;16.17;6.32;;;;;;;;;;5058426;28;20071;-71
2022/11/11 01:02:41;;;;;;;21.35;6.10;;;;;;;;;;5068096;28;20033;-72
2022/11/11 01:05:07;;;;;;;23.63;5.57;;;;;;;;;;5069281;28;20032;-73
2022/11/11 01:07:33;;;;;;;22.63;6.20;;;;;;;;;;5064499;28;20033;-73
2022/11/11 01:09:59;;;;;;;26.23;6.10;;;;;;;;;;5056170;28;20021;-73
2022/11/11 01:12:25;;;;;;;21.92;5.63;;;;;;;;;;5052857;28;20067;-74
2022/11/11 01:14:52;;;;;;;29.75;5.93;;;;;;;;;;5052903;28;20025;-73
2022/11/11 01:17:18;;;;;;;24.95;5.25;;;;;;;;;;5052770;28;20359;-71
2022/11/11 01:19:44;;;;;;;18.00;5.55;;;;;;;;;;5053325;28;20036;-70
2022/11/11 01:22:10;;;;;;;22.60;5.38;;;;;;;;;;5053194;28;20389;-71
2022/11/11 01:24:37;;;;;;;24.83;5.80;;;;;;;;;;5053578;28;20057;-73
2022/11/11 01:27:03;;;;;;;21.23;5.40;;;;;;;;;;5052586;28;20025;-73
2022/11/11 01:29:29;;;;;;;26.98;5.43;;;;;;;;;;5053060;28;20044;-74
2022/11/11 01:31:55;;;;;;;24.63;5.65;;;;;;;;;;5055756;28;20025;-72
2022/11/11 01:34:21;;;;;;;34.75;6.45;;;;;;;;;;5055781;28;20371;-73
2022/11/11 01:36:47;;;;;;;26.58;5.80;;;;;;;;;;5037865;28;20136;-72
2022/11/11 01:39:13;;;;;;;19.35;4.82;;;;;;;;;;5055835;28;20394;-73
2022/11/11 01:41:39;;;;;;;22.17;4.90;;;;;;;;;;5056127;28;20112;-73
2022/11/11 01:44:11;;;;;;;27.27;5.32;;;;;;;;;;5056887;28;20025;-72
2022/11/11 01:46:39;;;;;;;21.77;5.50;;;;;;;;;;5056541;28;20163;-72
2022/11/11 01:49:19;;;;;;;23.45;5.57;;;;;;;;;;5056732;28;20029;-73
2022/11/11 01:52:02;;;;;;;22.20;5.97;;;;;;;;;;5056792;28;20486;-73
2022/11/11 01:54:36;;;;;;;29.73;6.20;;;;;;;;;;5056666;28;20029;-73
2022/11/11 01:57:07;;;;;;;20.20;5.93;;;;;;;;;;5039580;28;20121;-72
2022/11/11 01:59:36;;;;;;;29.73;7.53;;;;;;;;;;5056506;28;20130;-72
2022/11/11 02:02:05;;;;;;;21.95;5.85;;;;;;;;;;5055862;28;20082;-72
2022/11/11 02:07:16;;;;;;;21.80;5.40;;;;;;;;;;5056312;28;20087;-72
2022/11/11 02:09:44;;;;;;;16.08;5.78;;;;;;;;;;5055437;28;20040;-73
2022/11/11 02:14:57;;;;;;;23.30;5.28;;;;;;;;;;5055444;28;20059;-73
2022/11/11 02:17:23;;;;;;;25.08;6.10;;;;;;;;;;5054959;28;20021;-74
2022/11/11 02:19:51;;;;;;;23.77;6.32;;;;;;;;;;5055204;28;20363;-73
2022/11/11 02:22:21;;;;;;;26.25;6.10;;;;;;;;;;5055323;28;20025;-73
2022/11/11 02:24:47;;;;;;;25.60;6.28;;;;;;;;;;5055350;28;20110;-72
2022/11/11 02:27:15;;;;;;;33.30;6.22;;;;;;;;;;5055235;28;20039;-73
2022/11/11 02:29:42;;;;;;;32.30;6.85;;;;;;;;;;5055509;28;20029;-72
2022/11/11 02:32:08;;;;;;;22.05;5.82;;;;;;;;;;5054731;28;20533;-73
2022/11/11 02:34:34;;;;;;;24.95;5.82;;;;;;;;;;5036665;28;20124;-73
2022/11/11 02:37:02;;;;;;;19.35;5.43;;;;;;;;;;5054188;28;20110;-74
2022/11/11 02:39:29;;;;;;;25.88;6.53;;;;;;;;;;5054362;28;20023;-72
2022/11/11 02:41:57;;;;;;;24.33;6.68;;;;;;;;;;5054092;28;20474;-73
2022/11/11 02:44:27;;;;;;;35.13;7.43;;;;;;;;;;5054634;28;20108;-73
2022/11/11 02:46:53;;;;;;;21.13;6.32;;;;;;;;;;5054634;28;20060;-73
2022/11/11 02:49:19;;;;;;;27.27;6.45;;;;;;;;;;5054735;28;20101;-74
2022/11/11 02:51:46;;;;;;;18.27;6.35;;;;;;;;;;5054877;28;20061;-73
2022/11/11 02:54:12;;;;;;;26.63;6.80;;;;;;;;;;5055150;28;20458;-73
2022/11/11 02:59:23;;;;;;;20.33;6.20;;;;;;;;;;5058814;28;20436;-73
2022/11/11 03:01:49;;;;;;;22.02;5.93;;;;;;;;;;5055564;28;20025;-73
2022/11/11 03:04:15;;;;;;;25.52;6.47;;;;;;;;;;5055953;28;20240;-71
2022/11/11 03:06:41;;;;;;;27.10;6.25;;;;;;;;;;5059252;28;20473;-72
2022/11/11 03:09:07;;;;;;;21.80;5.90;;;;;;;;;;5062432;28;20462;-73
2022/11/11 03:11:36;;;;;;;20.30;5.63;;;;;;;;;;5065502;28;20032;-72
2022/11/11 03:14:02;;;;;;;19.63;6.05;;;;;;;;;;5063253;28;20112;-73
2022/11/11 03:19:13;;;;;;;27.30;6.72;;;;;;;;;;5058432;28;20083;-73
2022/11/11 03:21:39;;;;;;;24.58;6.50;;;;;;;;;;5058520;28;20100;-72
2022/11/11 03:24:05;;;;;;;30.13;7.50;;;;;;;;;;5054331;28;20520;-72
2022/11/11 03:26:31;;;;;;;20.70;6.63;;;;;;;;;;5053729;28;20029;-72
2022/11/11 03:28:57;;;;;;;23.88;6.90;;;;;;;;;;5053582;28;20033;-72
2022/11/11 03:31:23;;;;;;;15.80;6.15;;;;;;;;;;5054730;28;20036;-74
2022/11/11 03:33:49;;;;;;;18.75;6.53;;;;;;;;;;5054645;28;20033;-74
2022/11/11 03:36:15;;;;;;;25.10;6.57;;;;;;;;;;5054044;28;20021;-72
2022/11/11 03:38:41;;;;;;;27.90;7.38;;;;;;;;;;5054453;28;20075;-71
2022/11/11 03:41:07;;;;;;;22.00;6.47;;;;;;;;;;5055095;28;20052;-73
2022/11/11 03:43:37;;;;;;;18.65;6.82;;;;;;;;;;5037379;28;20060;-73
2022/11/11 03:46:04;;;;;;;26.33;7.13;;;;;;;;;;5054668;28;20108;-73
2022/11/11 03:48:31;;;;;;;18.88;6.85;;;;;;;;;;5053610;28;20031;-74
2022/11/11 03:50:57;;;;;;;25.98;7.10;;;;;;;;;;5053727;28;20052;-71
2022/11/11 03:53:23;;;;;;;25.13;7.10;;;;;;;;;;5053501;28;20513;-72
2022/11/11 03:55:50;;;;;;;22.70;6.68;;;;;;;;;;5053858;28;20020;-72
2022/11/11 03:58:16;;;;;;;18.25;5.75;;;;;;;;;;5053295;28;20028;-72
2022/11/11 04:00:42;;;;;;;18.73;5.72;;;;;;;;;;5053502;28;20406;-73
2022/11/11 04:11:28;;;;;;;21.67;6.93;;;;;;;;;;5053053;28;20133;-72
2022/11/11 04:16:40;;;;;;;18.60;6.57;;;;;;;;;;5052958;28;20035;-73
2022/11/11 04:21:50;;;;;;;31.17;7.85;;;;;;;;;;5053254;28;20040;-74
2022/11/11 04:27:06;;;;;;;21.80;7.15;;;;;;;;;;5052892;28;20449;-72
2022/11/11 04:29:33;;;;;;;27.65;7.80;;;;;;;;;;5053549;28;20037;-73
2022/11/11 04:34:59;;;;;;;28.60;8.38;;;;;;;;;;5052946;28;20094;-73
2022/11/11 04:37:27;;;;;;;26.92;7.60;;;;;;;;;;5053028;28;20048;-73
2022/11/11 04:42:38;;;;;;;28.10;7.10;;;;;;;;;;5053176;28;20040;-72
2022/11/11 04:48:03;;;;;;;28.83;7.97;;;;;;;;;;5060395;28;20056;-72
2022/11/11 04:50:31;;;;;;;21.58;7.22;;;;;;;;;;5053635;28;20029;-73
2022/11/11 04:52:57;;;;;;;23.35;7.82;;;;;;;;;;5052525;28;20078;-73
2022/11/11 04:58:07;;;;;;;30.05;8.63;;;;;;;;;;5054446;28;20036;-72
2022/11/11 05:00:33;;;;;;;31.67;8.07;;;;;;;;;;5052382;28;20021;-73
2022/11/11 05:03:14;;;;;;;34.15;8.57;;;;;;;;;;5051840;28;20382;-72
2022/11/11 05:11:09;;;;;;;19.25;7.97;;;;;;;;;;5056172;28;20405;-73
2022/11/11 05:21:55;;;;;;;29.33;8.27;;;;;;;;;;5057212;28;20040;-72
2022/11/11 05:27:06;;;;;;;31.55;8.82;;;;;;;;;;5056914;28;20040;-72
2022/11/11 05:29:32;;;;;;;31.92;9.43;;;;;;;;;;5057959;28;20040;-72
2022/11/11 05:31:58;;;;;;;24.80;8.73;;;;;;;;;;5061831;28;20032;-73
2022/11/11 05:34:23;;;;;;;26.15;9.40;;;;;;;;;;5057167;28;20108;-72
2022/11/11 05:36:49;;;;;;;31.60;9.00;;;;;;;;;;5056461;28;20025;-73
2022/11/11 05:39:15;;;;;;;26.77;9.07;;;;;;;;;;5056723;28;20075;-72
2022/11/11 05:41:41;;;;;;;28.17;9.43;;;;;;;;;;5057574;28;20029;-72
2022/11/11 05:44:07;;;;;;;30.83;9.63;;;;;;;;;;5057166;28;20033;-74
2022/11/11 05:46:33;;;;;;;29.67;9.30;;;;;;;;;;5057387;28;20029;-74
2022/11/11 05:49:14;;;;;;;29.77;10.13;;;;;;;;;;5056411;28;20036;-73
2022/11/11 05:51:40;;;;;;;32.67;10.07;;;;;;;;;;5057456;28;20040;-72
2022/11/11 05:54:06;;;;;;;26.77;9.35;;;;;;;;;;5056603;28;20027;-72
2022/11/11 05:56:32;;;;;;;29.80;10.32;;;;;;;;;;5056935;28;20417;-72
2022/11/11 05:58:59;;;;;;;25.95;9.55;;;;;;;;;;5057292;28;20493;-71
2022/11/11 06:01:25;;;;;;;29.58;10.02;;;;;;;;;;5057534;28;20394;-72
2022/11/11 06:03:51;;;;;;;33.97;10.82;;;;;;;;;;5057060;28;20029;-73
2022/11/11 06:06:17;;;;;;;30.90;9.90;;;;;;;;;;5056289;28;20025;-72
2022/11/11 06:08:42;;;;;;;32.47;10.40;;;;;;;;;;5039572;28;20064;-74
2022/11/11 06:11:09;;;;;;;30.73;10.90;;;;;;;;;;5060757;28;20021;-76
2022/11/11 06:13:35;;;;;;;27.02;10.60;;;;;;;;;;5063996;28;20079;-72
2022/11/11 06:16:01;;;;;;;26.38;11.07;;;;;;;;;;5059445;28;20029;-72
2022/11/11 06:18:27;;;;;;;33.92;12.68;;;;;;;;;;5058630;28;20025;-74
2022/11/11 06:20:56;;;;;;;31.77;12.23;;;;;;;;;;5058895;28;20032;-73
2022/11/11 06:23:23;;;;;;;28.52;10.40;;;;;;;;;;5058501;28;20466;-72
2022/11/11 06:28:34;;;;;;;;;;;;;;;;;;5057163;28;20117;-73
2022/11/11 06:31:00;;;;;;;27.98;11.75;;;;;;;;;;5057129;28;19913;-73
2022/11/11 06:33:26;;;;;;;31.63;15.38;;;;;;;;;;5056372;28;20041;-73
2022/11/11 06:35:52;;;;;;;34.85;12.68;;;;;;;;;;5055502;28;20017;-73
2022/11/11 06:38:18;;;;;;;33.30;13.15;;;;;;;;;;5056972;28;20466;-73
2022/11/11 06:40:44;;;;;;;27.73;12.05;;;;;;;;;;5055473;28;20519;-73
2022/11/11 06:43:10;;;;;;;35.55;12.60;;;;;;;;;;5055869;28;20048;-72
2022/11/11 06:45:36;;;;;;;37.28;12.10;;;;;;;;;;5055543;28;20025;-73
2022/11/11 06:48:03;;;;;;;32.75;12.82;;;;;;;;;;5055482;28;20029;-73
2022/11/11 06:50:29;;;;;;;34.35;13.40;;;;;;;;;;5038212;28;20032;-72
2022/11/11 06:52:55;;;;;;;38.58;13.10;;;;;;;;;;5055714;28;20375;-72
2022/11/11 06:55:21;;;;;;;27.02;12.80;;;;;;;;;;5055958;28;20025;-72
2022/11/11 06:57:47;;;;;;;32.70;13.50;;;;;;;;;;5054845;28;20029;-74
2022/11/11 07:00:14;;;;;;;34.35;13.30;;;;;;;;;;5055031;28;20440;-72
2022/11/11 07:02:39;;;;;;;43.50;14.13;;;;;;;;;;5055302;28;20390;-72
2022/11/11 07:05:06;;;;;;;47.58;16.92;;;;;;;;;;5057574;28;20051;-74
2022/11/11 07:07:31;;;;;;;36.50;15.20;;;;;;;;;;5055264;28;20029;-73
2022/11/11 07:09:58;;;;;;;34.28;15.73;;;;;;;;;;5055253;28;20028;-72
2022/11/11 07:12:24;;;;;;;40.55;16.13;;;;;;;;;;5055787;28;20040;-73
2022/11/11 07:14:50;;;;;;;52.65;21.58;;;;;;;;;;5056222;28;20021;-72
2022/11/11 07:17:16;;;;;;;39.45;15.85;;;;;;;;;;5058959;28;20028;-73
2022/11/11 07:19:41;;;;;;;47.33;18.30;;;;;;;;;;5056390;28;20021;-72
2022/11/11 07:22:07;;;;;;;42.55;18.23;;;;;;;;;;5055526;28;20021;-74
2022/11/11 07:24:33;;;;;;;40.40;17.13;;;;;;;;;;5056297;28;20027;-73
2022/11/11 07:27:00;;;;;;;47.05;18.58;;;;;;;;;;5038190;28;20029;-73
2022/11/11 07:29:28;;;;;;;40.13;17.90;;;;;;;;;;5092334;22;20079;-77
2022/11/11 07:31:54;;;;;;;56.97;18.98;;;;;;;;;;5093480;28;20056;-77
2022/11/11 07:34:19;;;;;;;39.28;17.60;;;;;;;;;;5082024;28;20033;-78
2022/11/11 07:36:45;;;;;;;52.45;17.63;;;;;;;;;;5076735;28;20027;-76
2022/11/11 07:39:11;;;;;;;56.63;18.65;;;;;;;;;;5079537;28;20032;-77
2022/11/11 07:41:37;;;;;;;48.92;17.80;;;;;;;;;;5080338;28;20024;-78
2022/11/11 07:44:03;;;;;;;46.40;18.33;;;;;;;;;;5077703;28;20076;-77
2022/11/11 07:46:29;;;;;;;42.35;18.45;;;;;;;;;;5085276;28;20025;-77
2022/11/11 07:48:55;;;;;;;49.25;19.33;;;;;;;;;;5093069;28;20035;-78
2022/11/11 07:51:21;;;;;;;50.45;19.67;;;;;;;;;;5081859;28;20033;-77
2022/11/11 07:53:47;;;;;;;54.42;19.98;;;;;;;;;;5082777;28;20017;-78
2022/11/11 07:56:13;;;;;;;50.28;20.33;;;;;;;;;;5097410;28;20084;-77
2022/11/11 07:58:39;;;;;;;44.03;19.48;;;;;;;;;;5097204;28;20021;-77
2022/11/11 08:01:05;;;;;;;42.90;18.05;;;;;;;;;;5096035;28;20021;-78
2022/11/11 08:03:31;;;;;;;50.50;19.63;;;;;;;;;;5080023;28;20033;-78
2022/11/11 08:05:57;;;;;;;52.78;20.23;;;;;;;;;;5074920;28;20033;-77
2022/11/11 08:08:25;;;;;;;45.42;20.38;;;;;;;;;;5075213;28;20103;-78
2022/11/11 08:10:54;;;;;;;52.67;21.67;;;;;;;;;;5075516;28;20508;-77
2022/11/11 08:13:39;;;;;;;51.90;22.42;;;;;;;;;;5075643;28;20028;-77
2022/11/11 08:16:05;;;;;;;56.30;22.20;;;;;;;;;;5075611;28;20021;-77
2022/11/11 08:18:32;;;;;;;45.20;21.05;;;;;;;;;;5072481;28;20017;-77
2022/11/11 08:20:58;;;;;;;54.05;22.02;;;;;;;;;;5073348;28;20024;-77
2022/11/11 08:23:31;;;;;;;54.20;22.02;;;;;;;;;;5073953;28;20029;-77
2022/11/11 08:26:04;;;;;;;54.25;21.63;;;;;;;;;;5072422;28;20024;-76
2022/11/11 08:28:31;;;;;;;55.65;21.73;;;;;;;;;;5074612;28;20024;-77
2022/11/11 08:31:01;;;;;;;51.05;22.10;;;;;;;;;;5072259;28;20055;-77
2022/11/11 08:33:27;;;;;;;54.88;22.13;;;;;;;;;;5073948;28;20100;-77
2022/11/11 08:35:53;;;;;;;48.35;23.00;;;;;;;;;;5074318;28;20032;-77
2022/11/11 08:38:22;;;;;;;60.55;23.27;;;;;;;;;;5074388;28;20024;-77
2022/11/11 08:40:49;;;;;;;61.20;23.13;;;;;;;;;;5075987;28;20025;-78
2022/11/11 08:43:15;;;;;;;52.40;23.77;;;;;;;;;;5076670;28;20021;-77
2022/11/11 08:45:41;;;;;;;55.35;23.88;;;;;;;;;;5074734;28;20415;-77
2022/11/11 08:48:10;;;;;;;53.72;23.00;;;;;;;;;;5074463;28;20385;-78
2022/11/11 08:50:37;;;;;;;47.30;22.55;;;;;;;;;;5075147;28;20039;-78
2022/11/11 08:53:03;;;;;;;54.70;23.20;;;;;;;;;;5075163;28;20024;-78
2022/11/11 08:55:29;;;;;;;46.30;21.80;;;;;;;;;;5073220;28;20027;-77
2022/11/11 08:57:58;;;;;;;50.10;22.50;;;;;;;;;;5074313;28;20025;-77
2022/11/11 09:00:25;;;;;;;48.42;23.80;;;;;;;;;;5074279;28;20055;-78
2022/11/11 09:02:51;;;;;;;48.30;22.40;;;;;;;;;;5075725;28;20034;-77
2022/11/11 09:05:17;;;;;;;50.33;23.45;;;;;;;;;;5076810;28;20032;-77
2022/11/11 09:07:43;;;;;;;53.78;22.75;;;;;;;;;;5075469;28;20028;-78
2022/11/11 09:10:09;;;;;;;55.78;23.50;;;;;;;;;;5076550;28;20021;-78
2022/11/11 09:12:35;;;;;;;52.40;23.15;;;;;;;;;;5076460;28;20504;-77
2022/11/11 09:15:01;;;;;;;50.03;22.73;;;;;;;;;;5095780;28;20037;-77
2022/11/11 09:17:27;;;;;;;48.72;24.73;;;;;;;;;;5083690;28;20107;-77
2022/11/11 09:19:53;;;;;;;55.58;24.63;;;;;;;;;;5072961;28;20028;-77
2022/11/11 09:22:19;;;;;;;58.65;24.25;;;;;;;;;;5074454;28;20017;-78
2022/11/11 09:24:46;;;;;;;55.25;23.50;;;;;;;;;;5072434;28;20028;-78
2022/11/11 09:27:11;;;;;;;45.95;25.00;;;;;;;;;;5074375;28;20048;-77
2022/11/11 09:29:37;;;;;;;57.05;24.23;;;;;;;;;;5073882;28;20029;-77
2022/11/11 09:32:04;;;;;;;60.15;25.67;;;;;;;;;;5074566;28;20055;-77
2022/11/11 09:34:30;;;;;;;50.80;24.95;;;;;;;;;;5073936;28;20025;-77
2022/11/11 09:36:55;;;;;;;51.38;24.35;;;;;;;;;;5073266;28;20032;-77
2022/11/11 09:39:21;;;;;;;58.08;25.42;;;;;;;;;;5072893;28;20088;-77
2022/11/11 09:42:01;;;;;;;60.28;25.83;;;;;;;;;;5080622;28;20017;-77
2022/11/11 09:44:27;;;;;;;63.65;24.92;;;;;;;;;;5092715;28;20070;-78
2022/11/11 09:47:11;;;;;;;53.10;24.83;;;;;;;;;;5094450;28;20238;-78
2022/11/11 09:49:58;;;;;;;51.13;24.45;;;;;;;;;;5094809;28;20102;-78
2022/11/11 09:52:28;;;;;;;56.38;24.90;;;;;;;;;;5094675;28;20036;-77
2022/11/11 09:54:58;;;;;;;58.65;26.20;;;;;;;;;;5078757;28;20028;-77
2022/11/11 09:57:27;;;;;;;56.15;25.05;;;;;;;;;;5089910;28;20063;-76
2022/11/11 09:59:55;;;;;;;54.53;23.83;;;;;;;;;;5083498;28;20116;-78
2022/11/11 10:02:35;;;;;;;57.40;23.95;;;;;;;;;;5076909;28;20489;-77
2022/11/11 10:05:04;;;;;;;53.53;24.52;;;;;;;;;;5076505;28;20037;-78
2022/11/11 10:07:35;;;;;;;45.65;22.05;;;;;;;;;;5075920;28;20025;-78
2022/11/11 10:10:11;;;;;;;48.13;22.33;;;;;;;;;;5076747;28;20021;-77
2022/11/11 10:12:39;;;;;;;46.55;21.90;;;;;;;;;;5076750;28;20060;-77
2022/11/11 10:15:10;;;;;;;49.42;21.30;;;;;;;;;;5076436;28;20025;-78
2022/11/11 10:17:55;;;;;;;46.15;22.70;;;;;;;;;;5077836;28;20111;-77
2022/11/11 10:20:24;;;;;;;46.38;21.27;;;;;;;;;;5076636;28;20428;-79
2022/11/11 10:22:53;;;;;;;41.97;20.35;;;;;;;;;;5076854;28;20032;-77
2022/11/11 10:25:20;;;;;;;45.88;21.52;;;;;;;;;;5076308;28;20043;-77
2022/11/11 10:27:47;;;;;;;45.90;21.23;;;;;;;;;;5075726;28;20024;-76
2022/11/11 10:30:16;;;;;;;43.72;20.27;;;;;;;;;;5075784;28;20063;-77
2022/11/11 10:32:44;;;;;;;46.10;20.15;;;;;;;;;;5077193;28;20025;-76
2022/11/11 10:35:16;;;;;;;44.13;20.40;;;;;;;;;;5076040;28;20111;-76
2022/11/11 10:37:42;;;;;;;46.22;21.50;;;;;;;;;;5076358;28;20052;-77
2022/11/11 10:40:27;;;;;;;36.65;20.10;;;;;;;;;;5077004;28;20032;-76
2022/11/11 10:42:53;;;;;;;;;;;;;;;;;;5077814;28;20054;-75
2022/11/11 10:45:31;;;;;;;37.63;19.00;;;;;;;;;;5077590;28;19995;-77
2022/11/11 10:48:00;;;;;;;37.72;19.05;;;;;;;;;;5081293;28;20029;-76
2022/11/11 10:50:33;;;;;;;46.67;20.17;;;;;;;;;;5080205;28;20039;-77
2022/11/11 10:53:02;;;;;;;45.00;21.10;;;;;;;;;;5079690;28;20051;-76
2022/11/11 10:55:35;;;;;;;40.67;20.25;;;;;;;;;;5081173;28;20052;-77
2022/11/11 10:58:10;;;;;;;48.05;20.42;;;;;;;;;;5083174;28;20048;-77
2022/11/11 11:00:37;;;;;;;44.15;21.05;;;;;;;;;;5092755;28;20046;-77
2022/11/11 11:03:10;;;;;;;39.38;20.65;;;;;;;;;;5092216;28;20009;-77
2022/11/11 11:05:48;;;;;;;40.88;20.73;;;;;;;;;;5094436;28;20095;-77
2022/11/11 11:08:19;;;;;;;42.75;21.25;;;;;;;;;;5097703;28;20033;-77
2022/11/11 11:10:59;;;;;;;45.78;20.27;;;;;;;;;;5097996;28;20021;-77
2022/11/11 11:13:52;;;;;;;39.70;19.38;;;;;;;;;;5096676;28;20066;-77
2022/11/11 11:16:21;;;;;;;41.92;19.52;;;;;;;;;;5076119;28;20489;-77
2022/11/11 11:19:06;;;;;;;50.08;19.17;;;;;;;;;;5083529;28;20024;-77
2022/11/11 11:21:52;;;;;;;43.03;21.00;;;;;;;;;;5079822;28;20044;-78
2022/11/11 11:24:23;;;;;;;41.80;19.83;;;;;;;;;;5078013;28;20052;-76
2022/11/11 11:26:50;;;;;;;43.90;19.98;;;;;;;;;;5079705;28;20078;-78
2022/11/11 11:29:25;;;;;;;46.42;20.85;;;;;;;;;;5082394;28;20063;-77
2022/11/11 11:31:51;;;;;;;48.45;20.35;;;;;;;;;;5081614;28;20062;-78
2022/11/11 11:34:17;;;;;;;40.38;20.23;;;;;;;;;;5082324;28;20029;-78
2022/11/11 11:36:43;;;;;;;49.55;20.35;;;;;;;;;;5083032;28;20134;-79
2022/11/11 11:39:09;;;;;;;35.47;19.45;;;;;;;;;;5083872;28;20039;-79
2022/11/11 11:41:49;;;;;;;43.45;19.30;;;;;;;;;;5084236;28;20035;-79
2022/11/11 11:44:44;;;;;;;36.75;19.98;;;;;;;;;;5081226;28;20088;-79
2022/11/11 11:47:22;;;;;;;38.50;19.48;;;;;;;;;;5067286;28;20051;-78
2022/11/11 11:50:04;;;;;;;39.58;19.27;;;;;;;;;;5082905;28;20439;-77
2022/11/11 11:52:50;;;;;;;44.72;20.02;;;;;;;;;;5079970;28;20025;-78
2022/11/11 11:55:18;;;;;;;41.28;19.80;;;;;;;;;;5047416;28;20037;-77
2022/11/11 11:57:56;;;;;;;45.03;20.27;;;;;;;;;;5078207;28;20021;-76
2022/11/11 12:00:28;;;;;;;45.42;20.08;;;;;;;;;;5075858;28;20050;-76
2022/11/11 12:03:13;;;;;;;48.13;21.15;;;;;;;;;;5077354;28;20028;-77
2022/11/11 12:05:39;;;;;;;44.50;20.52;;;;;;;;;;5087566;28;20024;-78
2022/11/11 12:08:07;;;;;;;41.45;20.08;;;;;;;;;;5087272;28;20031;-78
2022/11/11 12:10:39;;;;;;;44.55;19.48;;;;;;;;;;5087901;28;20120;-77
2022/11/11 12:13:16;;;;;;;41.55;20.00;;;;;;;;;;5090003;28;20048;-78
2022/11/11 12:16:01;;;;;;;37.17;20.23;;;;;;;;;;5083237;28;20017;-78
2022/11/11 12:18:39;;;;;;;42.53;20.95;;;;;;;;;;5078425;28;20023;-79
2022/11/11 12:21:15;;;;;;;34.92;20.25;;;;;;;;;;5076446;28;20031;-77
2022/11/11 12:23:47;;;;;;;38.63;20.88;;;;;;;;;;5078096;28;20078;-78
2022/11/11 12:26:20;;;;;;;42.03;20.73;;;;;;;;;;5076120;28;20029;-76
2022/11/11 12:28:46;;;;;;;45.08;21.13;;;;;;;;;;5078925;28;20119;-78
2022/11/11 12:31:15;;;;;;;50.58;22.42;;;;;;;;;;5077405;28;20052;-79
2022/11/11 12:34:19;;;;;;;36.95;21.27;;;;;;;;;;5080409;28;20028;-81
2022/11/11 12:36:51;;;;;;;44.35;21.17;;;;;;;;;;5016944;28;20092;-77
2022/11/11 12:39:25;;;;;;;44.28;21.70;;;;;;;;;;5069432;28;20033;-76
2022/11/11 12:42:18;;;;;;;42.78;22.58;;;;;;;;;;5078409;28;20025;-77
2022/11/11 12:44:59;;;;;;;42.65;22.17;;;;;;;;;;5081645;28;20031;-77
2022/11/11 12:47:45;;;;;;;41.45;22.38;;;;;;;;;;5083326;28;20064;-77
2022/11/11 12:50:14;;;;;;;38.50;21.98;;;;;;;;;;5078781;28;20424;-78
2022/11/11 12:52:48;;;;;;;44.67;22.50;;;;;;;;;;5079126;28;20024;-77
2022/11/11 12:55:16;;;;;;;44.70;22.05;;;;;;;;;;5084358;28;20036;-78
2022/11/11 12:57:54;;;;;;;40.55;21.20;;;;;;;;;;5082410;28;20029;-77
2022/11/11 13:00:22;;;;;;;45.78;21.95;;;;;;;;;;5084283;28;20047;-76
2022/11/11 13:03:07;;;;;;;41.20;21.48;;;;;;;;;;5096116;28;20020;-77
2022/11/11 13:05:41;;;;;;;41.92;21.90;;;;;;;;;;5084728;28;20095;-78
2022/11/11 13:08:14;;;;;;;37.55;21.85;;;;;;;;;;5082442;28;20044;-77
2022/11/11 13:10:40;;;;;;;48.55;21.58;;;;;;;;;;5085907;28;20028;-78
2022/11/11 13:13:25;;;;;;;42.15;21.67;;;;;;;;;;5083030;28;20020;-77
2022/11/11 13:15:50;;;;;;;42.05;21.42;;;;;;;;;;5078857;28;20135;-78
2022/11/11 13:18:24;;;;;;;41.35;20.23;;;;;;;;;;5078264;28;20029;-78
2022/11/11 13:20:56;;;;;;;47.33;21.60;;;;;;;;;;5080371;28;20024;-77
2022/11/11 13:23:22;;;;;;;41.47;19.75;;;;;;;;;;5084251;28;20020;-77
2022/11/11 13:25:51;;;;;;;45.85;20.17;;;;;;;;;;5082364;28;20024;-78
2022/11/11 13:28:17;;;;;;;34.83;17.95;;;;;;;;;;5083233;28;20065;-79
2022/11/11 13:31:06;;;;;;;37.60;19.42;;;;;;;;;;5081529;28;20052;-78
2022/11/11 13:33:37;;;;;;;35.67;19.40;;;;;;;;;;5080047;28;20465;-77
2022/11/11 13:36:04;;;;;;;40.35;19.05;;;;;;;;;;5079588;28;20096;-77
2022/11/11 13:38:33;;;;;;;36.45;18.20;;;;;;;;;;5076575;28;20028;-78
2022/11/11 13:41:01;;;;;;;34.25;18.33;;;;;;;;;;5078899;28;20108;-78
2022/11/11 13:43:36;;;;;;;31.17;17.90;;;;;;;;;;5077838;28;20036;-77
2022/11/11 13:46:03;;;;;;;39.33;19.02;;;;;;;;;;5078028;28;20103;-78
2022/11/11 13:48:32;;;;;;;34.58;17.80;;;;;;;;;;5077092;28;20025;-77
2022/11/11 13:51:36;;;;;;;32.60;17.08;;;;;;;;;;5078604;28;20025;-78
2022/11/11 13:54:05;;;;;;;32.40;17.73;;;;;;;;;;5017120;28;20389;-78
2022/11/11 13:56:30;;;;;;;29.80;16.85;;;;;;;;;;5016102;28;20084;-77
2022/11/11 13:58:57;;;;;;;29.95;16.52;;;;;;;;;;5046369;28;20036;-77
2022/11/11 14:01:24;;;;;;;32.83;16.92;;;;;;;;;;5076933;28;20051;-77
2022/11/11 14:03:49;;;;;;;30.98;16.52;;;;;;;;;;5078453;28;20534;-78
2022/11/11 14:06:15;;;;;;;28.83;16.73;;;;;;;;;;5078775;28;20144;-77
2022/11/11 14:08:50;;;;;;;26.75;15.85;;;;;;;;;;5079559;28;20046;-78
2022/11/11 14:11:25;;;;;;;35.38;15.95;;;;;;;;;;5078533;28;20028;-78
2022/11/11 14:13:52;;;;;;;31.25;15.82;;;;;;;;;;5077723;28;20443;-77
2022/11/11 14:16:41;;;;;;;35.08;15.35;;;;;;;;;;5078089;28;20021;-78
2022/11/11 14:19:19;;;;;;;30.85;15.00;;;;;;;;;;5069856;28;20037;-78
2022/11/11 14:21:53;;;;;;;32.10;14.77;;;;;;;;;;5085442;28;20094;-77
2022/11/11 14:24:36;;;;;;;27.55;16.13;;;;;;;;;;5098985;28;20034;-79
2022/11/11 14:27:22;;;;;;;32.05;15.57;;;;;;;;;;5097461;28;20043;-77
2022/11/11 14:29:50;;;;;;;30.15;15.05;;;;;;;;;;5081845;28;20099;-78
2022/11/11 14:32:35;;;;;;;32.65;15.65;;;;;;;;;;5092679;28;20080;-80
2022/11/11 14:35:01;;;;;;;28.60;15.10;;;;;;;;;;5078946;28;20028;-77
2022/11/11 14:37:56;;;;;;;28.75;14.55;;;;;;;;;;5077252;28;20032;-77
2022/11/11 14:40:22;;;;;;;;;;;;;;;;;;5024778;28;20042;-79
2022/11/11 14:42:49;;;;;;;30.23;14.90;;;;;;;;;;5078099;28;19990;-80
2022/11/11 14:45:30;;;;;;;25.75;13.93;;;;;;;;;;5079334;28;20096;-78
2022/11/11 14:47:56;;;;;;;30.30;13.95;;;;;;;;;;5080923;28;20412;-77
2022/11/11 14:50:31;;;;;;;27.80;14.07;;;;;;;;;;5079110;28;20466;-79
2022/11/11 14:52:58;;;;;;;26.70;14.68;;;;;;;;;;5077917;28;20021;-78
2022/11/11 14:55:33;;;;;;;28.60;14.15;;;;;;;;;;5078850;28;20092;-78
2022/11/11 14:58:05;;;;;;;25.13;13.60;;;;;;;;;;5078553;28;20016;-78
2022/11/11 15:00:33;;;;;;;29.95;14.80;;;;;;;;;;5081322;28;20025;-76
2022/11/11 15:03:07;;;;;;;21.95;13.35;;;;;;;;;;5085660;28;20025;-77
2022/11/11 15:05:33;;;;;;;;;;;;;;;;;;5084596;28;20033;-75
2022/11/11 15:08:13;;;;;;;24.92;14.63;;;;;;;;;;5078500;28;19912;-78
2022/11/11 15:10:57;;;;;;;35.45;15.98;;;;;;;;;;5078424;28;20035;-76
2022/11/11 15:13:29;;;;;;;24.77;14.52;;;;;;;;;;5077801;28;20029;-77
2022/11/11 15:16:14;;;;;;;28.48;15.18;;;;;;;;;;5076928;28;20538;-78
2022/11/11 15:18:40;;;;;;;;;;;;;;;;;;5077943;28;20330;-78
2022/11/11 15:21:12;;;;;;;25.08;13.90;;;;;;;;;;5078655;28;19950;-77
2022/11/11 15:23:44;;;;;;;29.45;14.20;;;;;;;;;;5079495;28;20017;-77
2022/11/11 15:26:14;;;;;;;30.95;15.73;;;;;;;;;;5084082;28;20462;-77
2022/11/11 15:28:48;;;;;;;29.88;15.80;;;;;;;;;;5085065;28;20025;-78
2022/11/11 15:31:40;;;;;;;30.73;14.73;;;;;;;;;;5083847;28;20111;-77
2022/11/11 15:34:06;;;;;;;31.55;16.38;;;;;;;;;;5083508;28;20020;-77
2022/11/11 15:36:35;;;;;;;31.88;16.17;;;;;;;;;;5081285;28;20071;-77
2022/11/11 15:39:10;;;;;;;32.17;13.95;;;;;;;;;;5080974;28;20024;-77
2022/11/11 15:41:37;;;;;;;26.08;14.63;;;;;;;;;;5080006;28;20024;-76
2022/11/11 15:44:08;;;;;;;28.38;15.27;;;;;;;;;;5082768;28;20032;-77
2022/11/11 15:46:37;;;;;;;35.92;18.92;;;;;;;;;;5082301;28;20044;-77
2022/11/11 15:49:03;;;;;;;28.27;15.50;;;;;;;;;;5083119;28;20033;-77
2022/11/11 15:51:30;;;;;;;36.65;18.25;;;;;;;;;;5079020;28;20032;-78
2022/11/11 15:54:10;;;;;;;28.52;14.70;;;;;;;;;;5077886;28;20063;-77